CW8593 Gava ES current weather conditions

sailwx.info

Wind from 064 at 0 knots gusting 2

Air temperature 22.8° C
Dewpoint 17.2° C

Last reported at 2015-Sep-01 04:47 UTC.
Time now 2015-Sep-01 05:57 UTC

Location: N 41°18' E 001°60'.
View on Google Maps.

See reports from other nearby stations

  
Tides and Currents Weather Stations Pressure Air Temp Water Temp Dewpoint Dewpoint Depression Visibility Wind Speed Wind Dir Waves Ship Positions
date/time (UTC)wind fromknots sea level pressurealtimeterstation pressurevisibilityair tempwater tempwave heightnotes
2015-Sep-01 04:47 064 0 gusting 2 22.8
2015-Sep-01 04:42 064 1 gusting 2 22.8
2015-Sep-01 04:37 064 2 gusting 4 22.8
2015-Sep-01 04:32 063 0 gusting 2 22.8
2015-Sep-01 04:27 063 0 gusting 2 23.3
2015-Sep-01 03:52 063 23.3
2015-Sep-01 03:47 063 23.3
2015-Sep-01 03:42 063 0 gusting 6 23.3
2015-Sep-01 03:27 297 4 gusting 6 23.3
2015-Sep-01 03:12 280 5 gusting 7 23.9
2015-Sep-01 03:07 302 4 gusting 7 23.9
2015-Sep-01 03:02 324 1 gusting 6 23.9
2015-Sep-01 02:47 339 0 gusting 4 23.9
2015-Sep-01 02:42 355 3 gusting 6 23.9
2015-Sep-01 02:37 327 1 gusting 2 23.3
2015-Sep-01 02:17 325 23.3
2015-Sep-01 02:12 325 23.3
2015-Sep-01 02:07 325 0 gusting 2 23.3
2015-Sep-01 02:02 325 23.9
2015-Sep-01 01:57 325 1 gusting 2 23.9
2015-Sep-01 01:52 325 2 gusting 4 23.9
2015-Sep-01 01:47 355 24.4
2015-Sep-01 01:37 355 25.0
2015-Sep-01 01:32 355 25.0
2015-Sep-01 01:22 355 25.6
2015-Sep-01 01:12 355 25.6
2015-Sep-01 01:07 355 25.6
2015-Sep-01 01:02 355 5 gusting 6 25.6
2015-Sep-01 00:42 196 0 gusting 2 26.1
2015-Sep-01 00:37 178 2 gusting 7 26.1
2015-Sep-01 00:22 315 7 gusting 14 26.1
2015-Sep-01 00:17 302 6 gusting 13 26.1
2015-Sep-01 00:07 292 5 gusting 7 25.6
2015-Sep-01 00:02 266 2 gusting 10 25.6
2015-Aug-31 23:37 296 4 gusting 8 25.6
2015-Aug-31 23:32 296 4 gusting 6 25.6
2015-Aug-31 23:27 330 5 gusting 11 25.6
2015-Aug-31 23:22 339 6 gusting 13 25.6
2015-Aug-31 23:17 337 3 gusting 11 25.6
2015-Aug-31 23:12 046 6 gusting 10 25.6
2015-Aug-31 23:07 056 2 gusting 5 25.0
2015-Aug-31 23:02 313 0 gusting 2 25.0
2015-Aug-31 22:57 313 25.0
2015-Aug-31 22:52 313 25.0
2015-Aug-31 22:47 313 1 gusting 2 25.0
2015-Aug-31 22:42 312 1 gusting 4 25.0
2015-Aug-31 22:37 288 0 gusting 2 25.0
2015-Aug-31 22:27 232 25.6
2015-Aug-31 22:22 232 25.6
2015-Aug-31 22:02 232 25.6
2015-Aug-31 21:57 232 1 gusting 4 25.6
2015-Aug-31 21:52 218 0 gusting 2 25.6
2015-Aug-31 21:37 218 25.6
2015-Aug-31 21:32 218 25.6
2015-Aug-31 21:27 218 25.6
2015-Aug-31 21:22 200 3 gusting 6 25.6
2015-Aug-31 21:07 205 25.6
2015-Aug-31 21:02 205 25.6
2015-Aug-31 20:57 205 0 gusting 2 25.6
2015-Aug-31 20:52 205 0 gusting 5 25.6
2015-Aug-31 20:47 124 1 gusting 6 25.6
2015-Aug-31 20:42 302 4 gusting 6 25.6
2015-Aug-31 20:37 331 4 gusting 6 25.6
2015-Aug-31 20:32 320 2 gusting 6 25.6
2015-Aug-31 20:27 325 2 gusting 6 25.6
2015-Aug-31 20:22 315 5 gusting 13 25.6
2015-Aug-31 20:17 284 9 gusting 17 25.6
2015-Aug-31 19:57 138 2 gusting 8 25.6
2015-Aug-31 19:47 167 5 gusting 10 26.1
2015-Aug-31 19:42 175 4 gusting 13 26.1
2015-Aug-31 19:37 150 5 gusting 10 26.1
2015-Aug-31 19:32 184 6 gusting 13 26.1
2015-Aug-31 19:27 204 6 gusting 13 26.1
2015-Aug-31 19:22 184 7 gusting 13 26.1
2015-Aug-31 19:17 224 4 gusting 11 26.1
2015-Aug-31 19:12 198 4 gusting 10 26.1
2015-Aug-31 19:07 188 3 gusting 15 26.1
2015-Aug-31 19:02 206 6 gusting 13 26.1
2015-Aug-31 18:57 192 6 gusting 13 26.1
2015-Aug-31 18:47 194 6 gusting 15 26.1
2015-Aug-31 18:42 195 7 gusting 12 26.1
2015-Aug-31 18:37 190 5 gusting 12 26.1
2015-Aug-31 18:32 188 5 gusting 7 26.1
2015-Aug-31 18:17 182 5 gusting 6 26.1
2015-Aug-31 18:12 204 4 gusting 8 26.1
2015-Aug-31 18:07 203 4 gusting 8 26.1
2015-Aug-31 18:02 216 3 gusting 6 26.1
2015-Aug-31 17:57 227 0 gusting 6 26.1
2015-Aug-31 17:52 216 2 gusting 5 26.1
2015-Aug-31 17:47 197 0 gusting 4 26.1
2015-Aug-31 17:42 186 0 gusting 2 26.1
2015-Aug-31 17:32 186 1 gusting 5 26.1
2015-Aug-31 17:22 188 2 gusting 5 26.1
2015-Aug-31 17:17 186 2 gusting 5 26.1
2015-Aug-31 17:07 150 1 gusting 4 26.7
2015-Aug-31 17:02 156 0 gusting 2 26.7
2015-Aug-31 16:52 197 1 gusting 5 26.7
2015-Aug-31 16:42 186 2 gusting 5 26.7
2015-Aug-31 16:37 160 3 gusting 5 26.7
2015-Aug-31 16:27 149 2 gusting 5 26.7
2015-Aug-31 16:17 151 27.2
2015-Aug-31 16:12 151 2 gusting 5 27.2
2015-Aug-31 16:07 171 1 gusting 6 27.8
2015-Aug-31 16:02 171 0 gusting 2 27.2
2015-Aug-31 15:52 135 2 gusting 7 27.2
2015-Aug-31 15:47 174 1 gusting 6 27.2
2015-Aug-31 15:42 174 1 gusting 7 27.2
2015-Aug-31 15:37 150 2 gusting 6 27.2
2015-Aug-31 15:22 140 5 gusting 7 27.2
2015-Aug-31 15:17 150 2 gusting 7 27.2
2015-Aug-31 15:07 145 2 gusting 7 27.2
2015-Aug-31 15:02 136 3 gusting 7 27.2
2015-Aug-31 14:52 154 4 gusting 6 27.2
2015-Aug-31 14:42 185 3 gusting 8 27.8
2015-Aug-31 14:37 149 4 gusting 8 27.2
2015-Aug-31 14:32 133 4 gusting 10 27.2
2015-Aug-31 14:27 152 4 gusting 10 27.2
2015-Aug-31 14:17 146 4 gusting 10 27.8
2015-Aug-31 14:12 139 5 gusting 10 27.8
2015-Aug-31 14:02 175 5 gusting 8 27.8
2015-Aug-31 13:52 165 5 gusting 11 27.8
2015-Aug-31 13:47 144 4 gusting 6 27.8
2015-Aug-31 13:37 142 6 gusting 8 27.8
2015-Aug-31 13:27 200 3 gusting 8 27.8
2015-Aug-31 13:22 167 5 gusting 10 27.8
2015-Aug-31 13:17 145 7 gusting 13 27.8
2015-Aug-31 13:12 167 3 gusting 6 28.3
2015-Aug-31 13:07 139 4 gusting 8 27.8
2015-Aug-31 13:02 151 7 gusting 12 27.8
2015-Aug-31 12:52 197 6 gusting 12 27.8
2015-Aug-31 12:47 212 4 gusting 13 27.8
2015-Aug-31 12:42 186 5 gusting 10 28.3
2015-Aug-31 12:27 179 4 gusting 8 28.3
2015-Aug-31 12:22 147 3 gusting 7 28.3
2015-Aug-31 12:12 199 3 gusting 7 28.3
2015-Aug-31 12:07 174 4 gusting 7 28.3
2015-Aug-31 11:57 144 5 gusting 10 28.3
2015-Aug-31 11:37 169 5 gusting 8 28.9
2015-Aug-31 11:32 178 3 gusting 10 28.3
2015-Aug-31 11:22 212 3 gusting 6 28.9
2015-Aug-31 11:17 152 2 gusting 6 28.3
2015-Aug-31 11:12 180 3 gusting 6 28.3
2015-Aug-31 11:07 174 4 gusting 8 28.9
2015-Aug-31 11:02 161 4 gusting 7 28.3
2015-Aug-31 10:57 157 4 gusting 6 28.3
2015-Aug-31 10:52 169 5 gusting 8 28.3
2015-Aug-31 10:47 150 5 gusting 7 28.3
2015-Aug-31 10:42 169 1 gusting 6 28.3
2015-Aug-31 10:27 139 5 gusting 8 28.3
2015-Aug-31 09:57 123 2 gusting 5 27.8
2015-Aug-31 09:32 156 1 gusting 5 28.3
2015-Aug-31 09:27 154 2 gusting 4 28.3
2015-Aug-31 09:22 150 27.8
2015-Aug-31 09:12 088 0 gusting 2 27.8
2015-Aug-31 09:07 088 1 gusting 5 27.8
2015-Aug-31 09:02 135 1 gusting 4 27.8
2015-Aug-31 08:57 136 0 gusting 2 27.8
2015-Aug-31 08:47 104 3 gusting 6 27.2
2015-Aug-31 08:42 097 1 gusting 6 27.8
2015-Aug-31 08:32 096 1 gusting 5 27.8
2015-Aug-31 08:22 111 0 gusting 2 27.2
2015-Aug-31 08:17 306 27.2
2015-Aug-31 08:12 306 0 gusting 2 26.7
2015-Aug-31 08:07 314 26.7
2015-Aug-31 08:02 314 26.1
2015-Aug-31 07:57 314 26.1
2015-Aug-31 07:52 314 26.1
2015-Aug-31 07:47 314 25.6
2015-Aug-31 07:37 304 0 gusting 2 25.6
2015-Aug-31 07:32 304 25.6
2015-Aug-31 07:27 304 0 gusting 2 25.6
2015-Aug-31 07:22 304 25.0
2015-Aug-31 07:17 304 25.0
2015-Aug-31 07:12 304 0 gusting 2 25.0
2015-Aug-31 07:07 304 0 gusting 2 25.0
2015-Aug-31 07:02 304 25.0
2015-Aug-31 06:57 304 0 gusting 2 25.0
2015-Aug-31 06:47 304 0 gusting 2 24.4
2015-Aug-31 06:37 303 23.9
2015-Aug-31 06:32 304 23.9
2015-Aug-31 06:22 304 23.3
2015-Aug-31 06:12 304 22.8
2015-Aug-31 06:07 304 22.8
2015-Aug-31 05:52 304 22.8
2015-Aug-31 05:42 304 22.8
2015-Aug-31 05:37 304 22.8
2015-Aug-31 05:32 304 22.8
2015-Aug-31 05:27 304 22.8
2015-Aug-31 05:17 304 23.3
2015-Aug-31 05:12 304 23.3
2015-Aug-31 05:07 304 0 gusting 2 23.3
2015-Aug-31 05:02 304 23.3
2015-Aug-31 04:52 304 1 gusting 2 23.3
2015-Aug-31 04:47 304 23.3
2015-Aug-31 04:42 304 23.3
2015-Aug-31 04:37 304 23.3
2015-Aug-31 04:27 304 2 gusting 5 23.3
2015-Aug-31 04:22 311 1 gusting 2 23.3
2015-Aug-31 04:17 311 0 gusting 2 23.3
2015-Aug-31 04:12 311 3 gusting 5 23.3
2015-Aug-31 04:02 316 0 gusting 4 22.8
2015-Aug-31 03:57 314 2 gusting 4 22.8
2015-Aug-31 03:52 326 1 gusting 4 22.8
2015-Aug-31 03:47 320 1 gusting 6 22.8
2015-Aug-31 03:32 355 22.8
2015-Aug-31 03:27 355 0 gusting 2 22.8
2015-Aug-31 03:22 355 2 gusting 2 22.8
2015-Aug-31 03:17 355 22.8
2015-Aug-31 03:07 333 22.8
2015-Aug-31 03:02 333 0 gusting 4 22.8
2015-Aug-31 02:57 336 1 gusting 2 22.8
2015-Aug-31 02:47 336 22.8
2015-Aug-31 02:42 336 23.3
2015-Aug-31 02:32 330 1 gusting 4 23.3
2015-Aug-31 02:27 325 0 gusting 2 23.3
2015-Aug-31 02:12 323 23.3
2015-Aug-31 02:07 323 1 gusting 2 23.3
2015-Aug-31 01:47 323 23.3
2015-Aug-31 01:42 323 1 gusting 2 23.3
2015-Aug-31 01:37 325 1 gusting 2 23.3
2015-Aug-31 01:32 325 1 gusting 2 23.3
2015-Aug-31 01:27 325 0 gusting 2 23.3
2015-Aug-31 01:22 325 0 gusting 2 23.3
2015-Aug-31 01:12 325 2 gusting 5 23.3
2015-Aug-31 01:07 298 1 gusting 6 23.3
2015-Aug-31 01:02 292 5 gusting 6 23.3
2015-Aug-31 00:37 299 23.9
2015-Aug-31 00:27 299 23.9
2015-Aug-31 00:22 299 0 gusting 2 23.9
2015-Aug-31 00:12 299 23.9
2015-Aug-31 00:02 299 1 gusting 5 23.9
2015-Aug-30 23:57 300 1 gusting 2 23.9
2015-Aug-30 23:52 300 0 gusting 2 23.9
2015-Aug-30 23:47 300 1 gusting 2 23.9
2015-Aug-30 23:42 300 0 gusting 2 23.9
2015-Aug-30 23:37 300 23.9
2015-Aug-30 23:32 300 0 gusting 2 23.9
2015-Aug-30 23:27 300 0 gusting 2 24.4
2015-Aug-30 23:22 299 0 gusting 2 24.4
2015-Aug-30 23:17 299 24.4
2015-Aug-30 23:12 299 2 gusting 4 24.4
2015-Aug-30 23:07 300 1 gusting 2 24.4
2015-Aug-30 23:02 298 24.4
2015-Aug-30 22:42 298 2 gusting 4 24.4
2015-Aug-30 22:32 003 24.4
2015-Aug-30 22:27 003 24.4
2015-Aug-30 22:22 004 0 gusting 2 24.4
2015-Aug-30 21:57 003 24.4
2015-Aug-30 21:47 003 24.4
2015-Aug-30 21:42 003 24.4
2015-Aug-30 21:37 004 24.4
2015-Aug-30 21:32 003 24.4
2015-Aug-30 21:27 003 24.4
2015-Aug-30 21:17 003 24.4
2015-Aug-30 21:07 003 24.4
2015-Aug-30 20:57 004 24.4
2015-Aug-30 20:47 003 25.0
2015-Aug-30 20:42 004 24.4
2015-Aug-30 20:32 003 24.4
2015-Aug-30 20:27 003 25.0
2015-Aug-30 20:17 003 25.0
2015-Aug-30 20:12 003 0 gusting 2 25.0
2015-Aug-30 20:07 004 25.0
2015-Aug-30 19:57 003 0 gusting 2 25.6
2015-Aug-30 19:52 003 0 gusting 2 25.6
2015-Aug-30 19:47 003 0 gusting 2 25.6
2015-Aug-30 19:42 004 25.6
2015-Aug-30 19:37 003 25.6
2015-Aug-30 19:32 003 1 gusting 2 25.6
2015-Aug-30 19:27 003 1 gusting 2 25.6
2015-Aug-30 19:17 003 1 gusting 5 25.6
2015-Aug-30 19:12 077 0 gusting 2 26.1
2015-Aug-30 19:07 098 0 gusting 2 26.1
2015-Aug-30 19:02 100 0 gusting 5 26.1
2015-Aug-30 18:57 095 3 gusting 6 26.1
2015-Aug-30 18:47 079 3 gusting 6 26.1
2015-Aug-30 18:42 084 1 gusting 5 26.1
2015-Aug-30 18:27 081 1 gusting 6 26.1
2015-Aug-30 18:22 090 2 gusting 6 26.7
2015-Aug-30 18:17 071 2 gusting 5 26.7
2015-Aug-30 18:12 078 2 gusting 6 26.7
2015-Aug-30 18:07 069 2 gusting 6 26.7
2015-Aug-30 18:02 057 2 gusting 4 26.7
2015-Aug-30 17:57 070 0 gusting 6 26.7
2015-Aug-30 17:47 061 2 gusting 6 26.7
2015-Aug-30 17:37 063 2 gusting 6 26.7
2015-Aug-30 17:32 072 4 gusting 6 26.7
2015-Aug-30 17:27 061 2 gusting 6 27.2
2015-Aug-30 17:12 109 2 gusting 7 27.2
2015-Aug-30 17:07 082 3 gusting 7 27.2
2015-Aug-30 17:02 062 3 gusting 6 27.2
2015-Aug-30 16:57 078 5 gusting 7 27.2
2015-Aug-30 16:47 076 4 gusting 8 27.2
2015-Aug-30 16:32 072 3 gusting 7 27.8
2015-Aug-30 16:27 101 2 gusting 6 27.8
2015-Aug-30 16:22 042 2 gusting 7 27.8
2015-Aug-30 16:17 065 4 gusting 8 27.8
2015-Aug-30 16:12 074 5 gusting 8 27.8
2015-Aug-30 16:07 080 4 gusting 8 27.8
2015-Aug-30 16:02 063 4 gusting 8 27.8
2015-Aug-30 15:47 099 4 gusting 8 27.8
2015-Aug-30 15:42 104 5 gusting 8 27.8
2015-Aug-30 15:37 078 2 gusting 6 27.8
2015-Aug-30 15:32 108 5 gusting 8 27.8
2015-Aug-30 15:27 094 6 gusting 10 28.3
2015-Aug-30 15:22 128 5 gusting 8 28.3
2015-Aug-30 15:17 114 4 gusting 7 28.3
2015-Aug-30 15:07 104 3 gusting 8 28.3
2015-Aug-30 15:02 081 4 gusting 8 28.3
2015-Aug-30 14:47 102 3 gusting 7 28.3
2015-Aug-30 14:42 119 4 gusting 11 28.3
2015-Aug-30 14:37 104 5 gusting 11 28.3
2015-Aug-30 14:32 083 3 gusting 10 27.8
2015-Aug-30 14:27 126 6 gusting 10 28.3
2015-Aug-30 14:22 111 5 gusting 10 28.3
2015-Aug-30 14:17 083 6 gusting 8 28.9
2015-Aug-30 14:12 124 2 gusting 6 28.9
2015-Aug-30 14:07 066 5 gusting 10 28.9
2015-Aug-30 14:02 078 2 gusting 6 28.9
2015-Aug-30 13:52 116 2 gusting 6 28.9
2015-Aug-30 13:47 153 1 gusting 6 28.9
2015-Aug-30 13:42 138 1 gusting 6 28.9
2015-Aug-30 13:37 084 0 gusting 6 28.3
2015-Aug-30 13:32 083 1 gusting 8 28.3
2015-Aug-30 13:22 108 0 gusting 10 27.8
2015-Aug-30 13:17 139 4 gusting 6 27.8
2015-Aug-30 13:12 114 4 gusting 7 27.8
2015-Aug-30 13:07 117 2 gusting 8 27.8
2015-Aug-30 13:02 106 4 gusting 8 27.8
2015-Aug-30 12:57 092 2 gusting 11 28.3
2015-Aug-30 12:52 105 5 gusting 7 28.3
2015-Aug-30 12:47 110 5 gusting 8 28.3
2015-Aug-30 12:42 110 4 gusting 7 28.3
2015-Aug-30 12:32 124 3 gusting 10 28.3
2015-Aug-30 12:27 102 6 gusting 10 28.3
2015-Aug-30 12:22 099 5 gusting 10 28.9
2015-Aug-30 12:17 080 1 gusting 8 28.3
2015-Aug-30 12:07 080 4 gusting 8 28.3
2015-Aug-30 12:02 094 6 gusting 8 28.3
2015-Aug-30 11:57 089 0 gusting 6 28.3
2015-Aug-30 11:52 059 1 gusting 6 27.8
2015-Aug-30 11:42 060 2 gusting 6 27.8
2015-Aug-30 11:37 097 4 gusting 8 28.3
2015-Aug-30 11:32 094 3 gusting 11 27.8
2015-Aug-30 11:27 083 5 gusting 11 27.8
2015-Aug-30 11:22 112 5 gusting 8 27.8
2015-Aug-30 11:17 070 3 gusting 7 27.8
2015-Aug-30 11:12 079 5 gusting 10 27.8
2015-Aug-30 11:07 125 2 gusting 6 27.8
2015-Aug-30 11:02 119 4 gusting 10 27.8
2015-Aug-30 10:57 120 5 gusting 10 27.8
2015-Aug-30 10:47 044 2 gusting 7 27.8
2015-Aug-30 10:32 078 3 gusting 6 27.8
2015-Aug-30 10:17 115 3 gusting 6 27.2
2015-Aug-30 10:02 094 4 gusting 10 27.2
2015-Aug-30 09:57 063 4 gusting 8 27.8
2015-Aug-30 09:52 077 1 gusting 6 27.8
2015-Aug-30 09:27 034 1 gusting 6 27.2
2015-Aug-30 09:22 085 4 gusting 8 27.2
2015-Aug-30 09:02 068 2 gusting 6 26.1
2015-Aug-30 08:57 058 4 gusting 7 26.1
2015-Aug-30 08:52 040 4 gusting 7 26.7
2015-Aug-30 08:42 011 2 gusting 6 26.1
2015-Aug-30 08:32 047 1 gusting 4 26.1
2015-Aug-30 08:22 045 2 gusting 6 25.6
2015-Aug-30 08:12 038 4 gusting 6 25.6
2015-Aug-30 08:07 032 2 gusting 6 25.6
2015-Aug-30 07:57 086 2 gusting 6 25.6
2015-Aug-30 07:52 061 2 gusting 5 25.6
2015-Aug-30 07:42 029 2 gusting 7 25.0
2015-Aug-30 07:37 045 5 gusting 7 25.6
2015-Aug-30 07:32 045 2 gusting 6 25.6
2015-Aug-30 07:22 004 1 gusting 6 26.1
2015-Aug-30 07:17 009 25.6
2015-Aug-30 07:12 008 0 gusting 2 25.6
2015-Aug-30 07:07 009 0 gusting 2 25.0
2015-Aug-30 07:02 003 2 gusting 6 25.0
2015-Aug-30 06:52 333 2 gusting 6 24.4
2015-Aug-30 06:17 318 1 gusting 4 22.8
2015-Aug-30 06:12 318 3 gusting 5 22.8
2015-Aug-30 05:57 355 0 gusting 2 22.2
2015-Aug-30 05:52 355 22.2
2015-Aug-30 05:37 355 0 gusting 2 22.2
2015-Aug-30 05:32 355 22.2
2015-Aug-30 05:27 355 22.2
2015-Aug-30 05:12 355 22.2
2015-Aug-30 05:07 355 22.2
2015-Aug-30 05:02 355 0 gusting 1 22.2